KLKV

Lake County Airport

Lakeview, Oregon, USA
METAR KLKV 160453Z AUTO 33008KT 10SM CLR 01/M11 A3037 RMK AO2 SLP741 T00111111 FZRANO
Observed Flight Rules
Oct-16 @ 04:53 UTC (56 minutes ago) Visual Flight Rules
Wind Visibility Clouds
330° at 8 knots 10 miles
  • Clear skies
Temperatures Readings
Current 1°C / 34°F
Dewpoint -11°C / 12°F
Humidity 41%
Altimeter 30.37" Hg
Pressure 974.1 hPa
Elevation 1441
METAR KLKV 160453Z AUTO 33008KT 10SM CLR 01/M11 A3037 RMK AO2 SLP741 T00111111 FZRANO
Observed Flight Rules
Oct-16 @ 04:53 UTC
(56 minutes ago)
VFR
Wind Visibility
330° at 8 knots 10 miles
Clouds
  • Clear skies
Temperature Dewpoint
1°C / 34°F -11°C / 12°F
Humidity Altimeter Pressure
41% 30.37" Hg 974.1 hPa